createdAt,value
2019-03-16T00:01:04.312Z,119.53
2019-03-16T00:03:34.862Z,109.40
2019-03-16T00:06:05.342Z,113.60
2019-03-16T00:08:44.012Z,109.40
2019-03-16T00:11:16.657Z,115.27
2019-03-16T00:13:47.128Z,119.13
2019-03-16T00:16:17.551Z,136.77
2019-03-16T00:18:48.040Z,151.05
2019-03-16T00:21:18.491Z,148.50
2019-03-16T00:23:48.963Z,149.30
2019-03-16T00:26:19.341Z,138.50
2019-03-16T00:28:49.824Z,140.23
2019-03-16T00:31:20.289Z,142.43
2019-03-16T00:33:50.764Z,148.33
2019-03-16T00:36:21.201Z,140.53
2019-03-16T00:38:52.057Z,131.97
2019-03-16T00:41:22.508Z,133.90
2019-03-16T00:43:54.466Z,127.27
2019-03-16T00:46:24.890Z,131.73
2019-03-16T00:48:55.405Z,123.53
2019-03-16T00:51:25.865Z,130.70
2019-03-16T00:53:56.407Z,129.93
2019-03-16T00:56:26.877Z,134.83
2019-03-16T00:58:57.746Z,120.40
2019-03-16T01:01:28.241Z,121.53
2019-03-16T01:03:58.668Z,109.47
2019-03-16T01:06:29.341Z,123.30
2019-03-16T01:08:59.835Z,119.03
2019-03-16T01:11:30.352Z,123.20
2019-03-16T01:14:00.748Z,121.20
2019-03-16T01:16:31.208Z,113.27
2019-03-16T01:19:01.675Z,118.13
2019-03-16T01:21:32.192Z,124.73
2019-03-16T01:24:02.649Z,124.37
2019-03-16T01:26:33.086Z,123.63
2019-03-16T01:29:03.496Z,131.80
2019-03-16T01:31:34.077Z,131.00
2019-03-16T01:34:04.490Z,125.77
2019-03-16T01:36:34.945Z,130.53
2019-03-16T01:39:07.676Z,125.93
2019-03-16T01:41:38.119Z,139.10
2019-03-16T01:44:08.601Z,126.00
2019-03-16T01:46:39.122Z,135.20
2019-03-16T01:49:09.518Z,125.70
2019-03-16T01:51:40.051Z,122.67
2019-03-16T01:54:10.561Z,127.73
2019-03-16T01:56:41.015Z,130.20
2019-03-16T01:59:12.896Z,128.63
2019-03-16T02:01:43.451Z,133.03
2019-03-16T02:04:13.825Z,134.17
2019-03-16T02:06:44.353Z,133.03
2019-03-16T02:09:14.789Z,127.13
2019-03-16T02:11:45.357Z,130.93
2019-03-16T02:14:15.788Z,136.27
2019-03-16T02:16:46.206Z,156.33
2019-03-16T02:19:16.714Z,129.40
2019-03-16T02:21:47.344Z,151.35
2019-03-16T02:24:19.453Z,131.97
2019-03-16T02:26:50.313Z,137.00
2019-03-16T02:29:21.596Z,131.80
2019-03-16T02:31:52.022Z,121.43
2019-03-16T02:34:23.586Z,146.03
2019-03-16T02:36:54.360Z,130.87
2019-03-16T02:39:24.887Z,142.47
2019-03-16T02:41:55.356Z,129.73
2019-03-16T02:44:25.950Z,133.43
2019-03-16T02:46:56.428Z,130.30
2019-03-16T02:49:26.958Z,122.43
2019-03-16T02:51:57.604Z,117.57
2019-03-16T02:54:28.016Z,128.93
2019-03-16T02:56:58.457Z,134.83
2019-03-16T02:59:28.951Z,127.73
2019-03-16T03:01:59.521Z,127.50
2019-03-16T03:04:30.032Z,133.45
2019-03-16T03:07:00.681Z,115.87
2019-03-16T03:09:31.149Z,124.03
2019-03-16T03:12:02.120Z,124.80
2019-03-16T03:14:34.924Z,129.83
2019-03-16T03:17:05.763Z,142.27
2019-03-16T03:19:37.436Z,137.93
2019-03-16T03:22:09.537Z,130.63
2019-03-16T03:24:43.898Z,129.30
2019-03-16T03:27:12.075Z,130.80
2019-03-16T03:29:42.499Z,125.33
2019-03-16T03:32:12.947Z,137.83
2019-03-16T03:34:43.413Z,125.57
2019-03-16T03:37:16.324Z,125.47
2019-03-16T03:39:46.761Z,128.47
2019-03-16T03:42:17.304Z,121.10
2019-03-16T03:44:47.818Z,127.78
2019-03-16T03:47:18.367Z,111.07
2019-03-16T03:50:15.720Z,100.80
2019-03-16T03:52:52.748Z,98.10
2019-03-16T03:55:24.111Z,105.97
2019-03-16T03:57:54.673Z,101.60
2019-03-16T04:00:25.128Z,106.70
2019-03-16T04:02:55.621Z,106.13
2019-03-16T04:05:26.040Z,113.40
2019-03-16T04:07:56.554Z,110.77
2019-03-16T04:10:27.116Z,111.40
2019-03-16T04:12:57.611Z,116.17
2019-03-16T04:15:32.131Z,114.43
2019-03-16T04:18:02.582Z,122.27
2019-03-16T04:20:33.050Z,110.63
2019-03-16T04:23:03.567Z,117.80
2019-03-16T04:25:42.450Z,116.70
2019-03-16T04:28:16.113Z,113.33
2019-03-16T04:33:14.085Z,116.33
2019-03-16T04:35:44.491Z,123.20
2019-03-16T04:38:14.976Z,131.80
2019-03-16T04:40:46.555Z,115.53
2019-03-16T04:43:16.965Z,114.03
2019-03-16T04:45:47.533Z,118.13
2019-03-16T04:48:16.103Z,108.70
2019-03-16T04:50:47.095Z,98.97
2019-03-16T04:53:17.527Z,101.63
2019-03-16T04:55:47.908Z,93.03
2019-03-16T04:58:18.373Z,89.60
2019-03-16T05:00:48.921Z,95.53
2019-03-16T05:03:19.525Z,101.27
2019-03-16T05:05:50.756Z,102.73
2019-03-16T05:08:21.427Z,103.30
2019-03-16T05:10:51.866Z,113.70
2019-03-16T05:13:25.464Z,97.03
2019-03-16T05:15:55.930Z,92.20
2019-03-16T05:21:08.268Z,86.20
2019-03-16T05:23:38.773Z,79.40
2019-03-16T05:26:09.266Z,85.20
2019-03-16T05:28:39.696Z,76.90
2019-03-16T05:31:12.166Z,69.17
2019-03-16T05:33:45.194Z,78.17
2019-03-16T05:36:16.859Z,80.97
2019-03-16T05:38:47.326Z,68.23
2019-03-16T05:41:17.966Z,71.80
2019-03-16T05:43:48.469Z,71.10
2019-03-16T05:46:18.972Z,70.83
2019-03-16T05:48:49.443Z,71.30
2019-03-16T05:51:19.830Z,79.00
2019-03-16T05:53:50.375Z,71.97
2019-03-16T05:56:21.033Z,73.37
2019-03-16T05:58:51.533Z,69.07
2019-03-16T06:01:22.091Z,72.23
2019-03-16T06:03:52.543Z,71.37
2019-03-16T06:06:22.997Z,66.67
2019-03-16T06:08:53.526Z,68.13
2019-03-16T06:11:23.970Z,69.17
2019-03-16T06:13:56.131Z,63.80
2019-03-16T06:16:28.628Z,66.80
2019-03-16T06:18:59.908Z,57.47
2019-03-16T06:21:31.413Z,62.50
2019-03-16T06:24:01.937Z,58.43
2019-03-16T06:26:32.537Z,55.13
2019-03-16T06:29:02.979Z,59.40
2019-03-16T06:31:33.430Z,57.67
2019-03-16T06:34:03.859Z,62.73
2019-03-16T06:36:35.925Z,56.60
2019-03-16T06:39:07.667Z,51.90
2019-03-16T06:41:38.271Z,55.17
2019-03-16T06:44:11.227Z,53.37
2019-03-16T06:46:49.435Z,52.87
2019-03-16T06:52:48.351Z,53.63
2019-03-16T06:55:18.988Z,56.77
2019-03-16T06:57:58.445Z,50.97
2019-03-16T07:03:29.510Z,52.73
2019-03-16T07:06:01.123Z,53.97
2019-03-16T07:08:35.993Z,46.03
2019-03-16T07:11:06.663Z,57.17
2019-03-16T07:13:39.065Z,42.90
2019-03-16T07:16:12.241Z,47.90
2019-03-16T07:18:58.653Z,34.23
2019-03-16T07:24:30.311Z,36.13
2019-03-16T07:30:03.522Z,29.97
2019-03-16T07:32:56.373Z,33.30
2019-03-16T07:35:34.418Z,46.33
2019-03-16T07:38:13.584Z,36.40
2019-03-16T07:40:50.000Z,34.80
2019-03-16T07:43:26.228Z,34.40
2019-03-16T07:46:01.138Z,34.23
2019-03-16T07:48:34.476Z,34.27
2019-03-16T07:51:37.504Z,34.57
2019-03-16T07:54:20.620Z,31.17
2019-03-16T07:56:49.206Z,34.67
2019-03-16T07:59:19.897Z,28.50
2019-03-16T08:01:50.594Z,28.83
2019-03-16T08:08:04.305Z,29.93
2019-03-16T08:13:42.496Z,23.57
2019-03-16T08:16:14.609Z,20.13
2019-03-16T08:18:45.281Z,25.10
2019-03-16T08:21:18.849Z,18.67
2019-03-16T08:23:58.047Z,27.33
2019-03-16T08:26:30.983Z,31.70
2019-03-16T08:29:03.375Z,30.07
2019-03-16T08:31:35.404Z,20.17
2019-03-16T08:34:06.033Z,21.60
2019-03-16T08:36:38.337Z,20.68
2019-03-16T08:39:08.950Z,17.50
2019-03-16T08:41:39.434Z,28.20
2019-03-16T08:44:10.739Z,28.57
2019-03-16T08:46:41.185Z,27.37
2019-03-16T08:49:11.656Z,24.70
2019-03-16T08:51:42.073Z,19.93
2019-03-16T08:54:12.453Z,27.60
2019-03-16T08:56:42.947Z,24.63
2019-03-16T08:59:14.542Z,25.10
2019-03-16T09:01:46.158Z,29.13
2019-03-16T09:04:16.559Z,27.10
2019-03-16T09:06:47.167Z,20.13
2019-03-16T09:09:20.560Z,19.97
2019-03-16T09:11:53.394Z,26.40
2019-03-16T09:14:23.769Z,21.53
2019-03-16T09:17:00.115Z,25.23
2019-03-16T09:19:32.453Z,28.87
2019-03-16T09:22:02.948Z,18.30
2019-03-16T09:24:33.390Z,21.50
2019-03-16T09:27:04.037Z,22.93
2019-03-16T09:29:36.128Z,26.43
2019-03-16T09:32:06.593Z,24.23
2019-03-16T09:34:37.118Z,23.80
2019-03-16T09:37:07.537Z,28.90
2019-03-16T09:39:38.003Z,26.30
2019-03-16T09:42:10.280Z,18.40
2019-03-16T09:44:42.415Z,20.83
2019-03-16T09:47:12.972Z,19.17
2019-03-16T09:49:43.474Z,27.77
2019-03-16T09:52:15.338Z,27.73
2019-03-16T09:54:45.862Z,33.90
2019-03-16T09:57:16.345Z,31.30
2019-03-16T09:59:46.853Z,20.47
2019-03-16T10:02:17.299Z,20.77
2019-03-16T10:04:47.757Z,24.93
2019-03-16T10:07:20.853Z,22.90
2019-03-16T10:09:52.050Z,19.03
2019-03-16T10:12:25.764Z,21.23
2019-03-16T10:14:56.295Z,20.27
2019-03-16T10:17:27.175Z,26.20
2019-03-16T10:19:59.712Z,28.40
2019-03-16T10:22:30.832Z,24.83
2019-03-16T10:25:06.144Z,19.07
2019-03-16T10:27:35.819Z,25.97
2019-03-16T10:30:13.523Z,21.13
2019-03-16T10:32:44.228Z,20.97
2019-03-16T10:35:15.160Z,22.87
2019-03-16T10:37:47.107Z,24.30
2019-03-16T10:40:17.691Z,17.03
2019-03-16T10:42:48.331Z,15.90
2019-03-16T10:45:19.020Z,14.40
2019-03-16T10:47:49.749Z,19.10
2019-03-16T10:50:21.114Z,20.93
2019-03-16T10:52:54.529Z,29.47
2019-03-16T10:55:25.116Z,20.07
2019-03-16T10:57:55.761Z,17.97
2019-03-16T11:00:26.397Z,14.30
2019-03-16T11:02:58.277Z,23.20
2019-03-16T11:05:30.990Z,19.63
2019-03-16T11:08:02.622Z,17.05
2019-03-16T11:10:33.222Z,15.13
2019-03-16T11:13:03.645Z,15.50
2019-03-16T11:15:34.164Z,25.47
2019-03-16T11:18:04.770Z,20.57
2019-03-16T11:20:36.971Z,19.07
2019-03-16T11:23:08.337Z,18.20
2019-03-16T11:25:38.776Z,26.60
2019-03-16T11:28:11.844Z,29.17
2019-03-16T11:30:45.699Z,38.80
2019-03-16T11:33:16.447Z,34.30
2019-03-16T11:35:48.570Z,28.93
2019-03-16T11:38:20.030Z,25.27
2019-03-16T11:40:50.458Z,31.83
2019-03-16T11:43:21.160Z,22.47
2019-03-16T11:45:51.916Z,21.55
2019-03-16T11:48:22.502Z,21.87
2019-03-16T11:50:52.997Z,19.87
2019-03-16T11:53:23.541Z,20.83
2019-03-16T11:55:54.570Z,19.10
2019-03-16T11:58:25.022Z,18.63
2019-03-16T12:00:55.481Z,17.60
2019-03-16T12:03:25.928Z,22.43
2019-03-16T12:05:59.035Z,26.90
2019-03-16T12:08:29.561Z,25.00
2019-03-16T12:11:00.133Z,21.73
2019-03-16T12:13:30.647Z,21.83
2019-03-16T12:16:02.673Z,20.20
2019-03-16T12:18:33.417Z,19.23
2019-03-16T12:21:04.160Z,16.23
2019-03-16T12:23:34.767Z,14.90
2019-03-16T12:26:05.296Z,20.07
2019-03-16T12:28:35.908Z,27.87
2019-03-16T12:31:07.018Z,18.10
2019-03-16T12:33:37.633Z,28.73
2019-03-16T12:36:08.238Z,24.37
2019-03-16T12:38:42.511Z,17.73
2019-03-16T12:41:13.043Z,21.62
2019-03-16T12:43:55.490Z,24.37
2019-03-16T12:46:26.021Z,22.87
2019-03-16T12:48:56.760Z,29.37
2019-03-16T12:51:27.280Z,19.07
2019-03-16T12:53:58.031Z,18.50
2019-03-16T12:59:11.903Z,17.30
2019-03-16T13:01:44.071Z,14.53
2019-03-16T13:04:18.712Z,18.57
2019-03-16T13:06:51.237Z,15.63
2019-03-16T13:09:21.711Z,16.73
2019-03-16T13:11:53.243Z,21.07
2019-03-16T13:14:23.752Z,21.07
2019-03-16T13:16:57.160Z,17.73
2019-03-16T13:19:27.727Z,22.17
2019-03-16T13:22:00.045Z,16.90
2019-03-16T13:24:33.389Z,19.43
2019-03-16T13:27:06.046Z,20.33
2019-03-16T13:29:36.576Z,17.07
2019-03-16T13:32:07.112Z,18.83
2019-03-16T13:34:38.008Z,19.53
2019-03-16T13:37:08.652Z,23.07
2019-03-16T13:39:39.192Z,15.53
2019-03-16T13:42:15.589Z,15.80
2019-03-16T13:44:46.796Z,25.23
2019-03-16T13:47:26.468Z,16.07
2019-03-16T13:50:05.301Z,22.13
2019-03-16T13:52:37.333Z,22.30
2019-03-16T13:55:08.407Z,19.93
2019-03-16T13:57:38.889Z,21.37
2019-03-16T14:00:13.903Z,16.80
2019-03-16T14:02:44.441Z,15.77
2019-03-16T14:05:15.212Z,12.90
2019-03-16T14:07:46.032Z,18.00
2019-03-16T14:10:25.467Z,14.10
2019-03-16T14:12:55.932Z,13.53
2019-03-16T14:15:28.845Z,15.63
2019-03-16T14:17:59.311Z,18.80
2019-03-16T14:20:30.555Z,14.20
2019-03-16T14:23:01.360Z,15.50
2019-03-16T14:25:31.904Z,14.27
2019-03-16T14:28:04.224Z,14.87
2019-03-16T14:30:40.953Z,17.43
2019-03-16T14:33:09.457Z,30.90
2019-03-16T14:35:39.914Z,31.67
2019-03-16T14:38:12.074Z,27.83
2019-03-16T14:40:45.232Z,21.17
2019-03-16T14:43:15.686Z,23.90
2019-03-16T14:45:49.001Z,28.37
2019-03-16T14:48:20.319Z,32.90
2019-03-16T14:50:50.935Z,59.07
2019-03-16T14:53:21.631Z,33.00
2019-03-16T14:55:56.355Z,38.50
2019-03-16T14:58:27.999Z,29.77
2019-03-16T15:00:58.591Z,31.73
2019-03-16T15:03:29.224Z,30.97
2019-03-16T15:06:03.750Z,27.30
2019-03-16T15:09:06.188Z,29.03
2019-03-16T15:11:23.096Z,30.30
2019-03-16T15:14:01.908Z,24.37
2019-03-16T15:16:32.720Z,78.50
2019-03-16T15:19:03.775Z,88.57
2019-03-16T15:21:34.478Z,64.27
2019-03-16T15:24:04.979Z,55.78
2019-03-16T15:26:43.754Z,59.63
2019-03-16T15:29:11.182Z,55.50
2019-03-16T15:31:41.968Z,66.87
2019-03-16T15:43:47.332Z,44.23
2019-03-16T15:46:19.560Z,44.27
2019-03-16T15:49:13.977Z,49.42
2019-03-16T15:51:47.194Z,29.63
2019-03-16T15:54:17.844Z,33.40
2019-03-16T15:57:08.517Z,29.43
2019-03-16T15:59:40.329Z,42.83
2019-03-16T16:02:10.812Z,55.37
2019-03-16T16:07:55.152Z,39.17
2019-03-16T16:10:27.376Z,44.43
2019-03-16T16:12:59.387Z,45.27
2019-03-16T16:15:29.902Z,46.00
2019-03-16T16:18:02.536Z,48.47
2019-03-16T16:20:37.266Z,41.73
2019-03-16T16:23:11.244Z,42.20
2019-03-16T16:25:42.102Z,50.92
2019-03-16T16:28:33.045Z,41.40
2019-03-16T16:31:15.809Z,43.27
2019-03-16T16:33:38.101Z,42.20
2019-03-16T16:36:08.851Z,40.40
2019-03-16T16:38:39.343Z,41.13
2019-03-16T16:41:09.821Z,51.70
2019-03-16T16:43:41.878Z,36.60
2019-03-16T16:46:12.354Z,31.93
2019-03-16T16:48:42.767Z,32.93
2019-03-16T16:51:14.194Z,32.90
2019-03-16T16:53:44.785Z,34.13
2019-03-16T16:56:15.192Z,24.30
2019-03-16T16:58:45.886Z,30.27
2019-03-16T17:01:28.514Z,28.87
2019-03-16T17:04:03.251Z,29.43
2019-03-16T17:06:43.803Z,25.73
2019-03-16T17:09:15.943Z,23.70
2019-03-16T17:11:47.812Z,29.13
2019-03-16T17:17:08.623Z,31.50
2019-03-16T17:19:39.064Z,26.40
2019-03-16T17:22:14.719Z,35.90
2019-03-16T17:25:40.607Z,30.50
2019-03-16T17:27:27.190Z,34.17
2019-03-16T17:32:52.292Z,34.58
2019-03-16T17:35:22.820Z,29.97
2019-03-16T17:37:53.271Z,33.77
2019-03-16T17:40:23.987Z,32.67
2019-03-16T17:42:54.827Z,42.87
2019-03-16T17:45:25.326Z,46.53
2019-03-16T17:47:55.842Z,45.47
2019-03-16T17:50:27.604Z,43.37
2019-03-16T17:52:59.700Z,33.47
2019-03-16T17:55:32.868Z,40.87
2019-03-16T17:58:16.627Z,37.53
2019-03-16T18:00:53.353Z,37.83
2019-03-16T18:03:29.347Z,40.10
2019-03-16T18:06:02.474Z,36.50
2019-03-16T18:11:52.629Z,35.43
2019-03-16T18:14:20.032Z,35.93
2019-03-16T18:16:55.185Z,33.23
2019-03-16T18:19:32.743Z,35.20
2019-03-16T18:22:08.478Z,30.80
2019-03-16T18:24:39.184Z,32.13
2019-03-16T18:27:09.889Z,31.87
2019-03-16T18:29:43.245Z,28.77
2019-03-16T18:32:16.971Z,29.03
2019-03-16T18:34:48.998Z,36.33
2019-03-16T18:37:24.095Z,33.10
2019-03-16T18:39:57.200Z,38.70
2019-03-16T18:42:27.954Z,35.60
2019-03-16T18:44:59.171Z,33.17
2019-03-16T18:47:33.136Z,38.93
2019-03-16T18:50:07.658Z,34.80
2019-03-16T18:52:38.599Z,32.53
2019-03-16T18:55:11.611Z,33.17
2019-03-16T18:57:46.618Z,33.07
2019-03-16T19:00:34.743Z,37.60
2019-03-16T19:03:06.086Z,35.23
2019-03-16T19:05:40.615Z,40.07
2019-03-16T19:08:37.747Z,38.88
2019-03-16T19:11:21.467Z,37.23
2019-03-16T19:13:55.159Z,37.60
2019-03-16T19:16:27.411Z,36.77
2019-03-16T19:19:00.933Z,42.30
2019-03-16T19:21:31.944Z,38.73
2019-03-16T19:24:03.386Z,39.90
2019-03-16T19:26:34.150Z,39.77
2019-03-16T19:29:06.247Z,41.13
2019-03-16T19:35:20.216Z,41.23
2019-03-16T19:41:21.783Z,44.07
2019-03-16T19:49:32.276Z,47.37
2019-03-16T19:54:35.893Z,45.43
2019-03-16T19:57:16.420Z,47.53
2019-03-16T19:59:47.291Z,50.17
2019-03-16T20:02:18.822Z,79.67
2019-03-16T20:04:50.412Z,48.37
2019-03-16T20:07:23.151Z,45.00
2019-03-16T20:09:54.340Z,43.30
2019-03-16T20:12:27.494Z,41.53
2019-03-16T20:15:00.886Z,40.80
2019-03-16T20:17:33.151Z,47.33
2019-03-16T20:20:08.544Z,36.57
2019-03-16T20:22:42.145Z,45.93
2019-03-16T20:25:17.360Z,43.50
2019-03-16T20:27:55.196Z,36.73
2019-03-16T20:30:27.201Z,35.80
2019-03-16T20:33:04.329Z,34.17
2019-03-16T20:35:38.600Z,30.90
2019-03-16T20:38:10.057Z,35.17
2019-03-16T20:40:40.746Z,29.03
2019-03-16T20:43:11.197Z,41.60
2019-03-16T20:45:41.982Z,30.57
2019-03-16T20:48:29.614Z,27.37
2019-03-16T20:51:04.403Z,28.20
2019-03-16T20:53:35.489Z,36.53
2019-03-16T20:56:06.018Z,27.13
2019-03-16T20:58:41.670Z,29.67
2019-03-16T21:01:18.290Z,20.93
2019-03-16T21:03:48.898Z,20.87
2019-03-16T21:06:25.451Z,18.67
2019-03-16T21:09:03.124Z,17.03
2019-03-16T21:11:29.632Z,16.40
2019-03-16T21:14:09.237Z,14.33
2019-03-16T21:16:40.878Z,14.57
2019-03-16T21:19:11.400Z,16.73
2019-03-16T21:21:42.079Z,17.70
2019-03-16T21:24:12.630Z,20.20
2019-03-16T21:26:51.851Z,22.00
2019-03-16T21:29:19.327Z,24.53
2019-03-16T21:31:49.877Z,24.93
2019-03-16T21:34:22.971Z,28.07
2019-03-16T21:36:57.719Z,25.93
2019-03-16T21:39:28.356Z,26.67
2019-03-16T21:41:58.882Z,28.43
2019-03-16T21:44:29.565Z,27.70
2019-03-16T21:47:01.176Z,28.67
2019-03-16T21:49:32.473Z,30.63
2019-03-16T21:52:03.070Z,31.43
2019-03-16T21:54:33.443Z,26.13
2019-03-16T21:57:05.509Z,29.83
2019-03-16T21:59:36.070Z,28.97
2019-03-16T22:02:06.659Z,29.30
2019-03-16T22:04:37.215Z,28.90
2019-03-16T22:07:07.664Z,26.43
2019-03-16T22:09:38.115Z,31.33
2019-03-16T22:12:08.640Z,35.65
2019-03-16T22:14:39.123Z,28.77
2019-03-16T22:17:09.681Z,32.87
2019-03-16T22:19:40.171Z,40.27
2019-03-16T22:22:10.622Z,36.53
2019-03-16T22:24:41.077Z,34.90
2019-03-16T22:27:11.558Z,37.20
2019-03-16T22:29:42.601Z,31.03
2019-03-16T22:32:13.064Z,34.47
2019-03-16T22:34:46.118Z,33.50
2019-03-16T22:37:16.656Z,30.33
2019-03-16T22:39:47.135Z,35.83
2019-03-16T22:42:17.607Z,34.90
2019-03-16T22:44:49.716Z,33.20
2019-03-16T22:47:20.371Z,34.40
2019-03-16T22:49:51.284Z,32.90
2019-03-16T22:52:21.761Z,33.60
2019-03-16T22:54:52.309Z,35.50
2019-03-16T22:57:22.890Z,36.63
2019-03-16T22:59:53.390Z,34.23
2019-03-16T23:02:23.884Z,35.13
2019-03-16T23:04:54.387Z,31.10
2019-03-16T23:07:24.873Z,37.30
2019-03-16T23:09:55.405Z,35.90
2019-03-16T23:12:27.173Z,34.67
2019-03-16T23:14:57.717Z,32.50
2019-03-16T23:17:29.187Z,29.97
2019-03-16T23:19:59.751Z,33.27
2019-03-16T23:22:30.181Z,32.40
2019-03-16T23:25:00.652Z,34.47
2019-03-16T23:27:31.125Z,33.63
2019-03-16T23:30:01.763Z,34.80
2019-03-16T23:32:33.256Z,33.80
2019-03-16T23:35:03.957Z,32.67
2019-03-16T23:37:34.382Z,37.97
2019-03-16T23:40:06.653Z,33.33
2019-03-16T23:42:37.074Z,35.67
2019-03-16T23:45:14.815Z,32.83
2019-03-16T23:47:45.295Z,32.57
2019-03-16T23:50:15.822Z,33.93
2019-03-16T23:52:46.267Z,34.47
2019-03-16T23:55:16.789Z,38.07
2019-03-16T23:57:47.194Z,38.87
